createdAt,value
2018-08-10T00:00:44.926Z,0
2018-08-10T00:01:55.032Z,0
2018-08-10T00:03:05.112Z,0
2018-08-10T00:04:14.931Z,0
2018-08-10T00:05:25.068Z,0
2018-08-10T00:06:34.905Z,0
2018-08-10T00:07:45.013Z,0
2018-08-10T00:08:55.272Z,0
2018-08-10T00:10:05.457Z,0
2018-08-10T00:11:15.547Z,0
2018-08-10T00:12:25.387Z,0
2018-08-10T00:13:35.489Z,0
2018-08-10T00:14:45.588Z,0
2018-08-10T00:15:55.424Z,0
2018-08-10T00:17:05.579Z,0
2018-08-10T00:18:15.671Z,0
2018-08-10T00:19:25.763Z,0
2018-08-10T00:20:35.601Z,0
2018-08-10T00:21:45.430Z,0
2018-08-10T00:22:55.547Z,0
2018-08-10T00:24:05.654Z,0
2018-08-10T00:25:15.476Z,0
2018-08-10T00:26:25.564Z,0
2018-08-10T00:27:35.663Z,0
2018-08-10T00:28:45.556Z,0
2018-08-10T00:29:55.628Z,0
2018-08-10T00:31:05.726Z,0
2018-08-10T00:32:15.540Z,0
2018-08-10T00:33:25.101Z,0
2018-08-10T00:34:35.165Z,0
2018-08-10T00:35:45.263Z,0
2018-08-10T00:36:55.350Z,0
2018-08-10T00:38:05.439Z,0
2018-08-10T00:39:15.010Z,0
2018-08-10T00:40:25.090Z,0
2018-08-10T00:41:35.179Z,0
2018-08-10T00:42:44.998Z,0
2018-08-10T00:43:54.809Z,0
2018-08-10T00:45:04.907Z,0
2018-08-10T00:46:14.988Z,0
2018-08-10T00:47:24.806Z,0
2018-08-10T00:48:34.895Z,0
2018-08-10T00:49:44.976Z,0
2018-08-10T00:50:54.539Z,0
2018-08-10T00:52:04.619Z,0
2018-08-10T00:53:14.699Z,0
2018-08-10T00:54:24.767Z,0
2018-08-10T00:55:34.869Z,0
2018-08-10T00:56:44.948Z,0
2018-08-10T00:57:55.009Z,0
2018-08-10T00:59:05.081Z,0
2018-08-10T01:00:15.162Z,0
2018-08-10T01:01:25.253Z,0
2018-08-10T01:02:35.323Z,0
2018-08-10T01:03:45.414Z,0
2018-08-10T01:04:55.485Z,0
2018-08-10T01:06:05.582Z,0
2018-08-10T01:07:15.656Z,0
2018-08-10T01:08:25.727Z,0
2018-08-10T01:09:35.549Z,0
2018-08-10T01:10:45.635Z,0
2018-08-10T01:11:55.711Z,0
2018-08-10T01:13:05.793Z,0
2018-08-10T01:14:15.961Z,0
2018-08-10T01:15:26.052Z,0
2018-08-10T01:16:35.869Z,0
2018-08-10T01:17:45.694Z,0
2018-08-10T01:18:55.794Z,0
2018-08-10T01:20:05.951Z,0
2018-08-10T01:21:16.057Z,0
2018-08-10T01:22:26.129Z,0
2018-08-10T01:23:35.948Z,0
2018-08-10T01:24:46.024Z,0
2018-08-10T01:25:56.108Z,0
2018-08-10T01:27:06.190Z,0
2018-08-10T01:28:16.361Z,0
2018-08-10T01:29:26.235Z,0
2018-08-10T01:30:36.304Z,0
2018-08-10T01:31:46.370Z,0
2018-08-10T01:32:56.505Z,0
2018-08-10T01:34:06.607Z,0
2018-08-10T01:35:16.425Z,0
2018-08-10T01:36:26.489Z,0
2018-08-10T01:37:36.551Z,0
2018-08-10T01:38:46.626Z,0
2018-08-10T01:39:56.700Z,0
2018-08-10T01:41:06.781Z,0
2018-08-10T01:42:16.870Z,0
2018-08-10T01:43:26.949Z,0
2018-08-10T01:44:36.551Z,0
2018-08-10T01:45:46.373Z,0
2018-08-10T01:46:56.456Z,0
2018-08-10T01:48:06.544Z,0
2018-08-10T01:49:16.355Z,0
2018-08-10T01:50:26.420Z,0
2018-08-10T01:51:36.491Z,0
2018-08-10T01:52:46.564Z,0
2018-08-10T01:53:56.654Z,0
2018-08-10T01:55:06.732Z,0
2018-08-10T01:56:16.813Z,0
2018-08-10T01:57:26.906Z,0
2018-08-10T01:58:36.717Z,0
2018-08-10T01:59:46.795Z,0
2018-08-10T02:00:56.612Z,0
2018-08-10T02:02:06.683Z,0
2018-08-10T02:03:16.768Z,0
2018-08-10T02:04:26.604Z,0
2018-08-10T02:05:36.413Z,0
2018-08-10T02:06:46.231Z,0
2018-08-10T02:07:56.337Z,0
2018-08-10T02:09:06.421Z,0
2018-08-10T02:10:16.491Z,0
2018-08-10T02:11:26.575Z,0
2018-08-10T02:12:36.671Z,0
2018-08-10T02:13:46.826Z,0
2018-08-10T02:14:56.910Z,0
2018-08-10T02:16:06.984Z,0
2018-08-10T02:17:16.802Z,0
2018-08-10T02:18:26.349Z,0
2018-08-10T02:19:36.180Z,0
2018-08-10T02:20:46.254Z,0
2018-08-10T02:21:56.332Z,0
2018-08-10T02:23:06.158Z,0
2018-08-10T02:24:16.252Z,0
2018-08-10T02:25:26.380Z,0
2018-08-10T02:26:36.456Z,0
2018-08-10T02:27:46.539Z,0
2018-08-10T02:28:56.625Z,0
2018-08-10T02:30:06.711Z,0
2018-08-10T02:31:16.803Z,0
2018-08-10T02:32:26.928Z,0
2018-08-10T02:33:37.023Z,0
2018-08-10T02:34:47.099Z,0
2018-08-10T02:35:57.199Z,0
2018-08-10T02:37:07.278Z,0
2018-08-10T02:38:17.093Z,0
2018-08-10T02:39:26.965Z,0
2018-08-10T02:40:36.786Z,0
2018-08-10T02:41:46.364Z,0
2018-08-10T02:42:56.466Z,0
2018-08-10T02:44:06.539Z,0
2018-08-10T02:45:16.370Z,0
2018-08-10T02:46:26.456Z,0
2018-08-10T02:47:36.534Z,0
2018-08-10T02:48:46.690Z,0
2018-08-10T02:49:56.793Z,0
2018-08-10T02:51:06.863Z,0
2018-08-10T02:52:16.943Z,0
2018-08-10T02:53:27.021Z,0
2018-08-10T02:54:36.864Z,0
2018-08-10T02:55:46.931Z,0
2018-08-10T02:56:57.010Z,0
2018-08-10T02:58:06.836Z,0
2018-08-10T02:59:16.907Z,0
2018-08-10T03:00:26.983Z,0
2018-08-10T03:01:37.063Z,0
2018-08-10T03:02:46.907Z,0
2018-08-10T03:35:17.375Z,68
2018-08-10T03:36:27.162Z,72
2018-08-10T03:37:37.284Z,84
2018-08-10T03:38:47.361Z,92
2018-08-10T03:39:57.483Z,104
2018-08-10T03:41:07.563Z,116
2018-08-10T03:42:17.625Z,128
2018-08-10T03:43:27.436Z,144
2018-08-10T03:44:37.510Z,156
2018-08-10T03:45:47.592Z,168
2018-08-10T03:46:57.449Z,184
2018-08-10T03:48:07.525Z,200
2018-08-10T03:49:17.342Z,216
2018-08-10T03:50:27.410Z,236
2018-08-10T03:51:37.495Z,256
2018-08-10T03:52:47.633Z,276
2018-08-10T03:53:57.727Z,296
2018-08-10T03:55:07.788Z,320
2018-08-10T03:56:17.970Z,344
2018-08-10T03:57:27.576Z,368
2018-08-10T03:58:37.649Z,392
2018-08-10T03:59:47.723Z,420
2018-08-10T04:00:57.797Z,448
2018-08-10T04:02:07.601Z,476
2018-08-10T04:03:17.685Z,508
2018-08-10T04:04:27.790Z,536
2018-08-10T04:05:37.865Z,568
2018-08-10T04:06:47.950Z,596
2018-08-10T04:07:58.026Z,632
2018-08-10T04:09:08.096Z,660
2018-08-10T04:10:18.169Z,696
2018-08-10T04:11:27.988Z,728
2018-08-10T04:12:37.825Z,764
2018-08-10T04:13:47.935Z,800
2018-08-10T04:14:58.026Z,840
2018-08-10T04:16:08.114Z,876
2018-08-10T04:17:18.185Z,916
2018-08-10T04:18:28.257Z,964
2018-08-10T04:19:38.074Z,992
2018-08-10T04:20:48.154Z,1028
2018-08-10T04:21:58.234Z,1068
2018-08-10T04:23:08.307Z,1108
2018-08-10T04:24:18.396Z,1152
2018-08-10T04:25:28.218Z,1196
2018-08-10T04:26:38.285Z,1240
2018-08-10T04:27:48.402Z,1272
2018-08-10T04:28:58.250Z,1320
2018-08-10T04:30:08.338Z,1356
2018-08-10T04:31:18.417Z,1464
2018-08-10T04:32:28.499Z,1472
2018-08-10T04:33:38.574Z,1516
2018-08-10T04:34:48.387Z,1656
2018-08-10T04:35:57.936Z,1292
2018-08-10T04:37:08.016Z,2016
2018-08-10T04:38:17.569Z,2572
2018-08-10T04:39:27.394Z,2256
2018-08-10T04:40:37.210Z,2400
2018-08-10T04:41:47.293Z,1976
2018-08-10T04:42:57.095Z,1948
2018-08-10T04:44:07.187Z,1864
2018-08-10T04:45:17.260Z,2132
2018-08-10T04:46:27.346Z,2200
2018-08-10T04:47:37.430Z,2040
2018-08-10T04:48:47.508Z,2216
2018-08-10T04:49:57.598Z,2300
2018-08-10T04:51:07.677Z,2476
2018-08-10T04:52:17.768Z,4348
2018-08-10T04:53:27.316Z,3596
2018-08-10T04:54:37.144Z,5672
2018-08-10T04:55:47.224Z,5932
2018-08-10T04:56:57.306Z,6052
2018-08-10T04:58:07.394Z,6064
2018-08-10T04:59:17.483Z,6056
2018-08-10T05:00:27.560Z,6044
2018-08-10T05:01:37.379Z,6432
2018-08-10T05:02:47.470Z,6684
2018-08-10T05:03:57.267Z,6884
2018-08-10T05:05:07.090Z,6824
2018-08-10T05:06:17.189Z,6832
2018-08-10T05:07:27.260Z,6724
2018-08-10T05:08:37.391Z,6760
2018-08-10T05:09:47.598Z,6788
2018-08-10T05:10:57.503Z,6468
2018-08-10T05:12:07.582Z,6144
2018-08-10T05:13:17.140Z,4700
2018-08-10T05:14:27.222Z,5504
2018-08-10T05:15:37.417Z,6100
2018-08-10T05:16:47.547Z,6452
2018-08-10T05:17:57.366Z,5688
2018-08-10T05:19:06.653Z,6632
2018-08-10T05:20:16.219Z,5844
2018-08-10T05:21:25.783Z,7320
2018-08-10T05:22:35.864Z,7500
2018-08-10T05:23:45.920Z,7196
2018-08-10T05:24:56.001Z,7148
2018-08-10T05:26:06.414Z,5464
2018-08-10T05:27:16.489Z,3456
2018-08-10T05:28:26.375Z,4156
2018-08-10T05:29:36.475Z,3392
2018-08-10T05:30:46.541Z,3428
2018-08-10T05:31:56.610Z,2932
2018-08-10T05:33:06.680Z,2812
2018-08-10T05:34:16.761Z,2836
2018-08-10T05:35:26.843Z,2952
2018-08-10T05:36:36.647Z,3044
2018-08-10T05:37:46.800Z,3096
2018-08-10T05:38:56.888Z,3092
2018-08-10T05:40:06.966Z,3128
2018-08-10T05:41:17.042Z,3632
2018-08-10T05:42:27.148Z,4000
2018-08-10T05:43:37.233Z,3888
2018-08-10T05:44:47.310Z,4496
2018-08-10T05:45:57.402Z,3416
2018-08-10T05:47:07.889Z,4148
2018-08-10T05:48:17.836Z,4876
2018-08-10T05:49:27.935Z,5320
2018-08-10T05:50:38.006Z,3440
2018-08-10T05:51:47.566Z,3360
2018-08-10T05:52:57.667Z,3392
2018-08-10T05:54:07.487Z,4328
2018-08-10T05:55:17.561Z,5280
2018-08-10T05:56:27.627Z,3716
2018-08-10T05:57:37.764Z,3272
2018-08-10T05:58:47.838Z,3780
2018-08-10T05:59:57.644Z,5932
2018-08-10T06:01:07.746Z,5444
2018-08-10T06:02:17.836Z,4552
2018-08-10T06:03:28.443Z,5276
2018-08-10T06:04:38.315Z,4156
2018-08-10T06:05:48.405Z,3976
2018-08-10T06:06:58.483Z,3776
2018-08-10T06:08:08.566Z,3712
2018-08-10T06:09:18.134Z,3796
2018-08-10T06:10:27.954Z,3980
2018-08-10T06:11:37.866Z,3968
2018-08-10T06:12:47.947Z,4044
2018-08-10T06:13:58.019Z,4284
2018-08-10T06:15:07.839Z,4884
2018-08-10T06:16:17.393Z,5156
2018-08-10T06:17:26.942Z,5312
2018-08-10T06:18:36.774Z,5492
2018-08-10T06:19:47.074Z,5148
2018-08-10T06:20:57.235Z,4696
2018-08-10T06:22:07.326Z,5172
2018-08-10T06:23:17.409Z,5260
2018-08-10T06:24:27.475Z,5352
2018-08-10T06:25:37.541Z,5244
2018-08-10T06:26:47.611Z,5420
2018-08-10T06:27:58.028Z,5368
2018-08-10T06:29:08.143Z,5464
2018-08-10T06:30:18.216Z,5404
2018-08-10T06:31:28.282Z,5104
2018-08-10T06:32:38.344Z,4604
2018-08-10T06:33:48.703Z,4160
2018-08-10T06:34:58.194Z,4644
2018-08-10T06:36:08.279Z,4688
2018-08-10T06:37:18.361Z,4556
2018-08-10T06:38:28.444Z,4508
2018-08-10T06:39:38.281Z,4432
2018-08-10T06:40:48.416Z,4404
2018-08-10T06:41:58.545Z,4352
2018-08-10T06:43:08.651Z,4260
2018-08-10T06:44:18.736Z,4276
2018-08-10T06:45:28.548Z,4284
2018-08-10T06:46:38.638Z,4216
2018-08-10T06:47:48.460Z,4112
2018-08-10T06:48:58.543Z,3988
2018-08-10T06:50:08.830Z,4140
2018-08-10T06:51:19.335Z,4144
2018-08-10T06:52:29.583Z,4128
2018-08-10T06:53:39.407Z,4120
2018-08-10T06:54:49.499Z,4128
2018-08-10T06:56:00.371Z,4100
2018-08-10T06:57:10.273Z,4144
2018-08-10T06:58:20.388Z,4148
2018-08-10T06:59:30.484Z,4232
2018-08-10T07:00:40.373Z,4280
2018-08-10T07:01:50.354Z,4288
2018-08-10T07:03:00.183Z,4348
2018-08-10T07:04:10.277Z,4424
2018-08-10T07:05:20.380Z,4484
2018-08-10T07:06:30.477Z,4576
2018-08-10T07:07:41.138Z,4644
2018-08-10T07:08:51.087Z,4716
2018-08-10T07:10:00.913Z,4792
2018-08-10T07:11:11.006Z,4888
2018-08-10T07:12:21.082Z,4912
2018-08-10T07:13:31.669Z,4980
2018-08-10T07:14:41.575Z,5024
2018-08-10T07:15:51.724Z,5000
2018-08-10T07:17:01.819Z,4944
2018-08-10T07:18:11.887Z,4808
2018-08-10T07:19:21.715Z,5028
2018-08-10T07:20:31.812Z,5016
2018-08-10T07:21:41.918Z,5024
2018-08-10T07:22:52.019Z,5024
2018-08-10T07:24:02.095Z,5104
2018-08-10T07:25:12.185Z,5028
2018-08-10T07:26:22.021Z,4984
2018-08-10T07:27:32.120Z,4368
2018-08-10T07:28:41.943Z,4452
2018-08-10T07:29:51.769Z,4928
2018-08-10T07:31:01.656Z,4236
2018-08-10T07:32:11.802Z,4260
2018-08-10T07:33:21.641Z,4760
2018-08-10T07:34:31.513Z,4668
2018-08-10T07:35:41.602Z,4116
2018-08-10T07:36:51.730Z,4020
2018-08-10T07:38:01.835Z,4252
2018-08-10T07:39:11.917Z,5184
2018-08-10T07:40:22.018Z,4640
2018-08-10T07:41:32.113Z,4956
2018-08-10T07:42:41.931Z,4772
2018-08-10T07:43:51.754Z,4380
2018-08-10T07:45:01.844Z,5316
2018-08-10T07:46:11.925Z,5272
2018-08-10T07:47:21.738Z,4660
2018-08-10T07:48:31.825Z,4656
2018-08-10T07:49:41.930Z,5136
2018-08-10T07:50:52.040Z,5004
2018-08-10T07:52:01.908Z,4872
2018-08-10T07:53:12.034Z,4844
2018-08-10T07:54:22.123Z,4764
2018-08-10T07:55:31.970Z,4720
2018-08-10T07:56:41.786Z,4692
2018-08-10T07:57:51.879Z,4660
2018-08-10T07:59:01.859Z,4744
2018-08-10T08:00:12.188Z,4780
2018-08-10T08:01:22.268Z,4776
2018-08-10T08:02:32.339Z,4768
2018-08-10T08:03:42.458Z,4748
2018-08-10T08:04:52.302Z,4744
2018-08-10T08:06:02.222Z,4708
2018-08-10T08:07:12.721Z,4776
2018-08-10T08:08:22.807Z,4772
2018-08-10T08:09:32.875Z,4792
2018-08-10T08:10:43.370Z,4708
2018-08-10T08:11:53.482Z,4672
2018-08-10T08:13:03.558Z,4800
2018-08-10T08:14:13.641Z,4808
2018-08-10T08:15:23.470Z,4820
2018-08-10T08:16:33.297Z,4800
2018-08-10T08:17:43.379Z,4768
2018-08-10T08:18:53.463Z,4732
2018-08-10T08:20:04.106Z,4732
2018-08-10T08:21:14.201Z,4676
2018-08-10T08:22:24.287Z,4768
2018-08-10T08:23:34.421Z,4840
2018-08-10T08:24:44.243Z,4828
2018-08-10T08:25:54.319Z,4808
2018-08-10T08:27:04.232Z,4792
2018-08-10T08:28:14.450Z,4804
2018-08-10T08:29:24.597Z,4856
2018-08-10T08:30:34.687Z,4872
2018-08-10T08:31:44.801Z,4892
2018-08-10T08:32:54.868Z,4912
2018-08-10T08:34:04.958Z,4892
2018-08-10T08:35:15.261Z,4940
2018-08-10T08:36:25.077Z,5028
2018-08-10T08:37:35.208Z,5020
2018-08-10T08:38:45.039Z,4960
2018-08-10T08:39:54.870Z,5016
2018-08-10T08:41:05.380Z,4984
2018-08-10T08:42:15.588Z,4876
2018-08-10T08:43:25.407Z,5000
2018-08-10T08:44:35.494Z,5092
2018-08-10T08:45:46.454Z,5132
2018-08-10T08:46:57.281Z,5076
2018-08-10T08:48:07.414Z,5076
2018-08-10T08:49:17.511Z,5148
2018-08-10T08:50:27.621Z,5220
2018-08-10T08:51:37.712Z,5240
2018-08-10T08:52:47.538Z,5260
2018-08-10T08:53:57.596Z,5312
2018-08-10T08:55:07.771Z,5404
2018-08-10T08:56:17.852Z,5420
2018-08-10T08:57:28.222Z,4516
2018-08-10T08:58:38.304Z,4196
2018-08-10T08:59:48.395Z,4636
2018-08-10T09:00:58.500Z,5504
2018-08-10T09:02:08.333Z,5536
2018-08-10T09:03:18.437Z,5468
2018-08-10T09:04:28.576Z,5528
2018-08-10T09:05:38.686Z,5484
2018-08-10T09:06:48.531Z,5400
2018-08-10T09:07:58.628Z,5444
2018-08-10T09:09:08.740Z,5456
2018-08-10T09:10:18.446Z,5592
2018-08-10T09:11:28.279Z,5532
2018-08-10T09:12:38.367Z,5524
2018-08-10T09:13:47.936Z,5524
2018-08-10T09:14:57.770Z,5464
2018-08-10T09:16:07.616Z,5544
2018-08-10T09:17:30.817Z,5540
2018-08-10T09:19:10.911Z,5584
2018-08-10T09:20:21.242Z,5660
2018-08-10T09:21:31.114Z,5732
2018-08-10T09:22:41.214Z,5660
2018-08-10T09:23:51.046Z,5416
2018-08-10T09:25:00.875Z,5772
2018-08-10T09:26:11.001Z,6216
2018-08-10T09:27:21.137Z,6256
2018-08-10T09:28:30.969Z,6236
2018-08-10T09:29:41.075Z,6420
2018-08-10T09:30:51.158Z,6180
2018-08-10T09:32:01.474Z,6292
2018-08-10T09:33:11.796Z,6376
2018-08-10T09:34:21.706Z,6356
2018-08-10T09:35:31.936Z,6296
2018-08-10T09:36:42.020Z,5992
2018-08-10T09:37:52.134Z,6124
2018-08-10T09:39:02.235Z,5980
2018-08-10T09:40:12.322Z,5892
2018-08-10T09:41:22.149Z,5920
2018-08-10T09:42:32.266Z,5892
2018-08-10T09:43:42.356Z,5876
2018-08-10T09:44:52.457Z,5896
2018-08-10T09:46:02.554Z,5972
2018-08-10T09:47:12.511Z,5924
2018-08-10T09:48:22.621Z,5956
2018-08-10T09:49:32.729Z,5936
2018-08-10T09:50:42.801Z,5960
2018-08-10T09:51:53.100Z,5996
2018-08-10T09:53:03.182Z,6096
2018-08-10T09:54:13.282Z,6260
2018-08-10T09:55:22.848Z,6388
2018-08-10T09:56:32.964Z,6440
2018-08-10T09:57:42.778Z,6656
2018-08-10T09:58:52.929Z,6928
2018-08-10T10:00:03.161Z,7156
2018-08-10T10:01:13.257Z,7304
2018-08-10T10:02:23.339Z,6644
2018-08-10T10:03:33.154Z,6604
2018-08-10T10:04:43.228Z,6724
2018-08-10T10:05:53.304Z,6884
2018-08-10T10:07:03.405Z,6996
2018-08-10T10:08:13.519Z,6060
2018-08-10T10:09:23.363Z,6288
2018-08-10T10:10:33.467Z,7244
2018-08-10T10:11:43.549Z,8348
2018-08-10T10:12:53.644Z,7968
2018-08-10T10:14:03.730Z,8156
2018-08-10T10:15:13.572Z,8656
2018-08-10T10:16:23.691Z,8508
2018-08-10T10:17:34.091Z,8424
2018-08-10T10:18:43.994Z,8468
2018-08-10T10:19:54.100Z,8516
2018-08-10T10:21:04.298Z,8320
2018-08-10T10:22:14.658Z,6600
2018-08-10T10:23:24.496Z,6148
2018-08-10T10:24:34.575Z,5900
2018-08-10T10:25:44.669Z,5684
2018-08-10T10:26:54.771Z,6040
2018-08-10T10:28:04.854Z,7172
2018-08-10T10:29:14.954Z,6356
2018-08-10T10:30:25.041Z,5704
2018-08-10T10:31:35.140Z,5756
2018-08-10T10:32:45.598Z,5408
2018-08-10T10:33:55.807Z,6736
2018-08-10T10:35:05.898Z,5460
2018-08-10T10:36:15.994Z,6636
2018-08-10T10:37:26.118Z,6824
2018-08-10T10:38:36.279Z,5940
2018-08-10T10:39:46.395Z,6676
2018-08-10T10:40:56.491Z,6840
2018-08-10T10:42:06.572Z,5924
2018-08-10T10:43:16.669Z,5972
2018-08-10T10:44:26.804Z,5764
2018-08-10T10:45:36.898Z,5680
2018-08-10T10:46:47.006Z,5536
2018-08-10T10:47:57.109Z,5372
2018-08-10T10:49:07.197Z,5388
2018-08-10T10:50:17.287Z,5392
2018-08-10T10:51:27.383Z,5396
2018-08-10T10:52:37.225Z,5508
2018-08-10T10:53:47.059Z,5664
2018-08-10T10:54:57.135Z,5752
2018-08-10T10:56:07.250Z,5776
2018-08-10T10:57:17.113Z,5756
2018-08-10T10:58:27.220Z,5764
2018-08-10T10:59:37.289Z,5784
2018-08-10T11:00:47.111Z,5808
2018-08-10T11:01:57.207Z,5888
2018-08-10T11:03:07.334Z,5964
2018-08-10T11:04:17.456Z,6044
2018-08-10T11:05:27.284Z,6144
2018-08-10T11:06:37.368Z,6156
2018-08-10T11:07:47.530Z,6176
2018-08-10T11:08:57.644Z,6212
2018-08-10T11:10:07.736Z,6592
2018-08-10T11:11:17.872Z,7108
2018-08-10T11:12:27.962Z,8152
2018-08-10T11:13:38.056Z,7216
2018-08-10T11:14:48.159Z,7100
2018-08-10T11:15:57.963Z,7328
2018-08-10T11:17:07.787Z,7600
2018-08-10T11:18:18.170Z,8460
2018-08-10T11:19:28.273Z,8228
2018-08-10T11:20:38.341Z,7636
2018-08-10T11:21:48.424Z,6356
2018-08-10T11:22:58.513Z,5644
2018-08-10T11:24:09.032Z,5344
2018-08-10T11:25:19.992Z,5164
2018-08-10T11:26:30.471Z,5036
2018-08-10T11:27:40.287Z,4960
2018-08-10T11:28:50.386Z,4936
2018-08-10T11:30:00.247Z,4980
2018-08-10T11:31:10.379Z,5056
2018-08-10T11:32:20.474Z,5120
2018-08-10T11:33:30.568Z,5132
2018-08-10T11:34:40.666Z,5144
2018-08-10T11:35:50.765Z,5168
2018-08-10T11:37:00.884Z,5228
2018-08-10T11:38:10.721Z,5416
2018-08-10T11:39:20.806Z,5824
2018-08-10T11:40:30.894Z,6368
2018-08-10T11:41:41.295Z,7356
2018-08-10T11:42:51.457Z,10808
2018-08-10T11:44:01.558Z,10684
2018-08-10T11:45:11.881Z,10516
2018-08-10T11:46:21.702Z,8756
2018-08-10T11:47:31.805Z,9412
2018-08-10T11:48:41.927Z,8016
2018-08-10T11:49:52.012Z,7500
2018-08-10T11:51:02.166Z,7952
2018-08-10T11:52:12.280Z,9052
2018-08-10T11:53:22.095Z,9788
2018-08-10T11:54:32.296Z,9656
2018-08-10T11:55:42.401Z,9432
2018-08-10T11:56:52.492Z,9296
2018-08-10T11:58:02.577Z,9192
2018-08-10T11:59:12.678Z,9136
2018-08-10T12:00:22.791Z,8908
2018-08-10T12:01:32.882Z,8708
2018-08-10T12:02:42.985Z,8372
2018-08-10T12:03:53.079Z,8060
2018-08-10T12:05:02.924Z,8052
2018-08-10T12:06:13.023Z,8084
2018-08-10T12:07:22.971Z,8220
2018-08-10T12:08:32.807Z,8392
2018-08-10T12:09:42.907Z,8260
2018-08-10T12:10:52.755Z,8180
2018-08-10T12:12:02.843Z,8100
2018-08-10T12:13:12.939Z,8208
2018-08-10T12:14:23.041Z,8176
2018-08-10T12:15:33.136Z,7916
2018-08-10T12:16:42.698Z,8324
2018-08-10T12:17:52.792Z,8384
2018-08-10T12:19:02.992Z,7896
2018-08-10T12:20:12.915Z,8252
2018-08-10T12:21:22.741Z,6836
2018-08-10T12:22:32.862Z,5768
2018-08-10T12:23:42.971Z,5788
2018-08-10T12:24:53.543Z,6124
2018-08-10T12:26:03.662Z,6364
2018-08-10T12:27:13.772Z,6144
2018-08-10T12:28:23.340Z,6264
2018-08-10T12:29:33.182Z,6616
2018-08-10T12:30:43.262Z,6600
2018-08-10T12:31:53.373Z,7112
2018-08-10T12:33:03.475Z,6912
2018-08-10T12:34:13.322Z,9640
2018-08-10T12:35:23.477Z,9112
2018-08-10T12:36:33.570Z,6992
2018-08-10T12:37:43.697Z,6764
2018-08-10T12:38:53.539Z,6920
2018-08-10T12:40:03.638Z,6980
2018-08-10T12:41:13.735Z,7948
2018-08-10T12:42:23.846Z,6520
2018-08-10T12:43:33.947Z,6100
2018-08-10T12:44:44.045Z,6996
2018-08-10T12:45:54.146Z,7440
2018-08-10T12:47:04.301Z,7992
2018-08-10T12:48:14.130Z,6168
2018-08-10T12:49:23.976Z,5612
2018-08-10T12:50:33.904Z,5660
2018-08-10T12:51:44.103Z,6000
2018-08-10T12:52:53.948Z,6124
2018-08-10T12:54:03.525Z,6372
2018-08-10T12:55:13.339Z,6584
2018-08-10T12:56:23.434Z,6976
2018-08-10T12:57:33.544Z,6856
2018-08-10T12:58:43.640Z,5848
2018-08-10T12:59:53.470Z,5036
2018-08-10T13:01:03.306Z,4704
2018-08-10T13:02:13.398Z,4396
2018-08-10T13:03:23.956Z,3984
2018-08-10T13:04:34.092Z,3780
2018-08-10T13:05:43.911Z,3672
2018-08-10T13:06:54.016Z,3560
2018-08-10T13:08:04.121Z,3440
2018-08-10T13:09:13.954Z,3392
2018-08-10T13:10:24.048Z,3440
2018-08-10T13:11:33.868Z,3528
2018-08-10T13:12:43.956Z,3636
2018-08-10T13:13:54.051Z,3684
2018-08-10T13:15:04.148Z,3748
2018-08-10T13:16:14.263Z,3804
2018-08-10T13:17:24.363Z,3856
2018-08-10T13:18:34.957Z,3884
2018-08-10T13:19:45.066Z,3980
2018-08-10T13:20:55.185Z,4028
2018-08-10T13:22:04.827Z,4128
2018-08-10T13:23:14.917Z,4208
2018-08-10T13:24:24.515Z,4248
2018-08-10T13:25:34.639Z,4288
2018-08-10T13:26:44.747Z,4360
2018-08-10T13:27:54.859Z,4392
2018-08-10T13:29:04.967Z,4424
2018-08-10T13:30:15.077Z,4420
2018-08-10T13:31:24.883Z,4332
2018-08-10T13:32:34.971Z,4240
2018-08-10T13:33:45.038Z,4180
2018-08-10T13:34:54.610Z,4148
2018-08-10T13:36:04.707Z,4084
2018-08-10T13:37:14.797Z,4056
2018-08-10T13:38:24.895Z,4104
2018-08-10T13:39:34.732Z,4232
2018-08-10T13:40:44.815Z,4444
2018-08-10T13:41:54.938Z,4704
2018-08-10T13:43:04.771Z,4888
2018-08-10T13:44:14.888Z,4980
2018-08-10T13:45:25.050Z,5048
2018-08-10T13:46:35.183Z,5128
2018-08-10T13:47:45.295Z,5216
2018-08-10T13:48:55.133Z,5276
2018-08-10T13:50:05.233Z,5328
2018-08-10T13:51:15.331Z,5400
2018-08-10T13:52:25.167Z,5496
2018-08-10T13:53:35.250Z,5616
2018-08-10T13:54:45.340Z,5740
2018-08-10T13:55:55.446Z,5872
2018-08-10T13:57:05.602Z,6004
2018-08-10T13:58:15.972Z,6060
2018-08-10T13:59:25.808Z,6148
2018-08-10T14:00:35.909Z,6196
2018-08-10T14:01:46.012Z,6216
2018-08-10T14:02:56.105Z,6164
2018-08-10T14:04:05.949Z,6444
2018-08-10T14:05:16.065Z,6432
2018-08-10T14:06:26.571Z,6072
2018-08-10T14:07:36.722Z,5892
2018-08-10T14:08:46.865Z,5704
2018-08-10T14:09:56.943Z,5516
2018-08-10T14:11:06.774Z,5364
2018-08-10T14:12:16.894Z,5188
2018-08-10T14:13:26.984Z,4960
2018-08-10T14:14:37.118Z,4824
2018-08-10T14:15:47.117Z,4880
2018-08-10T14:16:57.321Z,4956
2018-08-10T14:18:07.450Z,6012
2018-08-10T14:19:17.532Z,6580
2018-08-10T14:20:27.695Z,6388
2018-08-10T14:21:37.786Z,7208
2018-08-10T14:22:47.905Z,7284
2018-08-10T14:23:57.735Z,6820
2018-08-10T14:25:07.830Z,6688
2018-08-10T14:26:17.935Z,6524
2018-08-10T14:27:27.762Z,6272
2018-08-10T14:28:37.601Z,6400
2018-08-10T14:29:47.689Z,5820
2018-08-10T14:30:57.784Z,5600
2018-08-10T14:32:07.599Z,5244
2018-08-10T14:33:17.477Z,5012
2018-08-10T14:34:27.319Z,4944
2018-08-10T14:35:37.418Z,4648
2018-08-10T14:36:47.510Z,4504
2018-08-10T14:37:57.668Z,4440
2018-08-10T14:39:07.763Z,4528
2018-08-10T14:40:17.865Z,4392
2018-08-10T14:41:28.464Z,4172
2018-08-10T14:42:38.551Z,4000
2018-08-10T14:43:48.649Z,3856
2018-08-10T14:44:58.745Z,3756
2018-08-10T14:46:08.869Z,3760
2018-08-10T14:47:19.240Z,3688
2018-08-10T14:48:29.468Z,3480
2018-08-10T14:49:39.288Z,3308
2018-08-10T14:50:49.392Z,3164
2018-08-10T14:51:59.525Z,3032
2018-08-10T14:53:09.370Z,2896
2018-08-10T14:54:19.462Z,2748
2018-08-10T14:55:29.543Z,2620
2018-08-10T14:56:39.634Z,2508
2018-08-10T14:57:49.725Z,2416
2018-08-10T14:58:59.811Z,2344
2018-08-10T15:00:09.898Z,2296
2018-08-10T15:01:20.067Z,2248
2018-08-10T15:02:30.153Z,2212
2018-08-10T15:03:39.974Z,2172
2018-08-10T15:04:50.074Z,2124
2018-08-10T15:06:00.165Z,2064
2018-08-10T15:07:10.351Z,1992
2018-08-10T15:08:20.204Z,1908
2018-08-10T15:09:30.316Z,1812
2018-08-10T15:10:40.147Z,1740
2018-08-10T15:11:50.440Z,1684
2018-08-10T15:13:01.677Z,1652
2018-08-10T15:14:11.738Z,1676
2018-08-10T15:15:21.884Z,1752
2018-08-10T15:16:31.710Z,1840
2018-08-10T15:17:41.535Z,1924
2018-08-10T15:18:51.351Z,1972
2018-08-10T15:20:01.450Z,1984
2018-08-10T15:21:11.522Z,1964
2018-08-10T15:22:21.391Z,1936
2018-08-10T15:23:31.518Z,1896
2018-08-10T15:24:41.627Z,1848
2018-08-10T15:25:51.436Z,1800
2018-08-10T15:27:01.521Z,1760
2018-08-10T15:28:11.618Z,1724
2018-08-10T15:29:21.451Z,1712
2018-08-10T15:30:31.550Z,1708
2018-08-10T15:31:41.699Z,1708
2018-08-10T15:32:51.794Z,1720
2018-08-10T15:34:01.636Z,1732
2018-08-10T15:35:11.733Z,1744
2018-08-10T15:36:21.803Z,1752
2018-08-10T15:37:31.878Z,1748
2018-08-10T15:38:42.161Z,1740
2018-08-10T15:39:51.985Z,1704
2018-08-10T15:41:02.062Z,1656
2018-08-10T15:42:11.915Z,1600
2018-08-10T15:43:21.996Z,1532
2018-08-10T15:44:32.111Z,1476
2018-08-10T15:45:42.185Z,1420
2018-08-10T15:46:52.270Z,1384
2018-08-10T15:48:01.854Z,1352
2018-08-10T15:49:12.015Z,1312
2018-08-10T15:50:22.098Z,1260
2018-08-10T15:51:32.189Z,1216
2018-08-10T15:52:42.283Z,1188
2018-08-10T15:53:52.171Z,1184
2018-08-10T15:55:02.276Z,1192
2018-08-10T15:56:12.766Z,1216
2018-08-10T15:57:22.804Z,1252
2018-08-10T15:58:32.895Z,1280
2018-08-10T15:59:42.989Z,1308
2018-08-10T16:00:53.086Z,1328
2018-08-10T16:02:03.268Z,1352
2018-08-10T16:03:13.396Z,1356
2018-08-10T16:04:23.200Z,1360
2018-08-10T16:05:33.297Z,1360
2018-08-10T16:06:43.410Z,1352
2018-08-10T16:07:53.547Z,1344
2018-08-10T16:09:03.644Z,1336
2018-08-10T16:10:13.731Z,1324
2018-08-10T16:11:23.832Z,1312
2018-08-10T16:12:33.970Z,1300
2018-08-10T16:13:44.183Z,1288
2018-08-10T16:14:54.322Z,1280
2018-08-10T16:16:04.429Z,1272
2018-08-10T16:17:14.255Z,1248
2018-08-10T16:18:24.072Z,1220
2018-08-10T16:19:33.884Z,1192
2018-08-10T16:20:43.708Z,1176
2018-08-10T16:21:53.799Z,1176
2018-08-10T16:23:03.917Z,1172
2018-08-10T16:24:13.998Z,1168